sensor_id;sensor_type;location;lat;lon;timestamp;P1;durP1;ratioP1;P2;durP2;ratioP2
12625;SDS011;6378;42.684;23.372;2024-02-26T00:01:25;40.43;;;29.63;;
12625;SDS011;6378;42.684;23.372;2024-02-26T00:03:51;47.40;;;31.90;;
12625;SDS011;6378;42.684;23.372;2024-02-26T00:06:17;50.23;;;34.73;;
12625;SDS011;6378;42.684;23.372;2024-02-26T00:08:43;51.03;;;35.13;;
12625;SDS011;6378;42.684;23.372;2024-02-26T00:11:09;51.17;;;36.10;;
12625;SDS011;6378;42.684;23.372;2024-02-26T00:13:35;56.90;;;36.13;;
12625;SDS011;6378;42.684;23.372;2024-02-26T00:16:02;53.10;;;35.30;;
12625;SDS011;6378;42.684;23.372;2024-02-26T00:18:28;49.13;;;35.73;;
12625;SDS011;6378;42.684;23.372;2024-02-26T00:20:53;50.07;;;35.33;;
12625;SDS011;6378;42.684;23.372;2024-02-26T00:23:19;52.77;;;35.67;;
12625;SDS011;6378;42.684;23.372;2024-02-26T00:25:44;50.80;;;34.77;;
12625;SDS011;6378;42.684;23.372;2024-02-26T00:28:10;47.30;;;32.07;;
12625;SDS011;6378;42.684;23.372;2024-02-26T00:30:36;46.97;;;31.43;;
12625;SDS011;6378;42.684;23.372;2024-02-26T00:33:01;48.87;;;35.17;;
12625;SDS011;6378;42.684;23.372;2024-02-26T00:35:27;47.00;;;33.03;;
12625;SDS011;6378;42.684;23.372;2024-02-26T00:37:52;44.80;;;32.87;;
12625;SDS011;6378;42.684;23.372;2024-02-26T00:40:18;50.83;;;35.10;;
12625;SDS011;6378;42.684;23.372;2024-02-26T00:42:44;52.30;;;35.67;;
12625;SDS011;6378;42.684;23.372;2024-02-26T00:45:14;50.67;;;32.90;;
12625;SDS011;6378;42.684;23.372;2024-02-26T00:47:41;49.27;;;34.43;;
12625;SDS011;6378;42.684;23.372;2024-02-26T00:50:07;45.17;;;32.40;;
12625;SDS011;6378;42.684;23.372;2024-02-26T00:52:33;50.33;;;33.67;;
12625;SDS011;6378;42.684;23.372;2024-02-26T00:54:59;53.33;;;34.60;;
12625;SDS011;6378;42.684;23.372;2024-02-26T00:57:25;46.33;;;34.70;;
12625;SDS011;6378;42.684;23.372;2024-02-26T00:59:50;56.27;;;36.87;;
12625;SDS011;6378;42.684;23.372;2024-02-26T01:02:16;50.43;;;36.43;;
12625;SDS011;6378;42.684;23.372;2024-02-26T01:04:41;55.50;;;40.20;;
12625;SDS011;6378;42.684;23.372;2024-02-26T01:07:07;62.03;;;43.70;;
12625;SDS011;6378;42.684;23.372;2024-02-26T01:09:32;62.27;;;43.57;;
12625;SDS011;6378;42.684;23.372;2024-02-26T01:12:16;57.43;;;39.43;;
12625;SDS011;6378;42.684;23.372;2024-02-26T01:14:42;58.90;;;40.53;;
12625;SDS011;6378;42.684;23.372;2024-02-26T01:17:07;58.57;;;38.63;;
12625;SDS011;6378;42.684;23.372;2024-02-26T01:19:33;57.73;;;40.03;;
12625;SDS011;6378;42.684;23.372;2024-02-26T01:21:58;68.80;;;45.10;;
12625;SDS011;6378;42.684;23.372;2024-02-26T01:24:24;63.77;;;44.67;;
12625;SDS011;6378;42.684;23.372;2024-02-26T01:26:49;61.97;;;40.87;;
12625;SDS011;6378;42.684;23.372;2024-02-26T01:29:15;58.13;;;39.07;;
12625;SDS011;6378;42.684;23.372;2024-02-26T01:31:40;61.20;;;40.40;;
12625;SDS011;6378;42.684;23.372;2024-02-26T01:34:06;61.53;;;41.77;;
12625;SDS011;6378;42.684;23.372;2024-02-26T01:36:31;59.23;;;41.40;;
12625;SDS011;6378;42.684;23.372;2024-02-26T01:38:57;65.67;;;42.30;;
12625;SDS011;6378;42.684;23.372;2024-02-26T01:41:22;59.53;;;41.33;;
12625;SDS011;6378;42.684;23.372;2024-02-26T01:43:48;57.70;;;40.03;;
12625;SDS011;6378;42.684;23.372;2024-02-26T01:46:13;55.20;;;37.73;;
12625;SDS011;6378;42.684;23.372;2024-02-26T01:48:40;62.97;;;39.27;;
12625;SDS011;6378;42.684;23.372;2024-02-26T01:51:07;57.90;;;39.20;;
12625;SDS011;6378;42.684;23.372;2024-02-26T01:53:33;57.10;;;41.40;;
12625;SDS011;6378;42.684;23.372;2024-02-26T01:55:59;56.37;;;38.00;;
12625;SDS011;6378;42.684;23.372;2024-02-26T01:58:25;58.40;;;39.60;;
12625;SDS011;6378;42.684;23.372;2024-02-26T02:00:51;54.50;;;37.37;;
12625;SDS011;6378;42.684;23.372;2024-02-26T02:03:17;56.43;;;37.60;;
12625;SDS011;6378;42.684;23.372;2024-02-26T02:05:42;62.27;;;42.77;;
12625;SDS011;6378;42.684;23.372;2024-02-26T02:08:09;63.00;;;43.03;;
12625;SDS011;6378;42.684;23.372;2024-02-26T02:10:36;58.23;;;39.93;;
12625;SDS011;6378;42.684;23.372;2024-02-26T02:13:03;62.73;;;40.37;;
12625;SDS011;6378;42.684;23.372;2024-02-26T02:15:28;53.63;;;39.30;;
12625;SDS011;6378;42.684;23.372;2024-02-26T02:17:54;58.47;;;39.73;;
12625;SDS011;6378;42.684;23.372;2024-02-26T02:20:23;58.33;;;39.47;;
12625;SDS011;6378;42.684;23.372;2024-02-26T02:23:12;58.60;;;39.73;;
12625;SDS011;6378;42.684;23.372;2024-02-26T02:25:39;59.63;;;37.80;;
12625;SDS011;6378;42.684;23.372;2024-02-26T02:28:04;61.27;;;39.30;;
12625;SDS011;6378;42.684;23.372;2024-02-26T02:30:31;53.90;;;38.43;;
12625;SDS011;6378;42.684;23.372;2024-02-26T02:32:58;58.43;;;40.13;;
12625;SDS011;6378;42.684;23.372;2024-02-26T02:35:24;50.00;;;36.03;;
12625;SDS011;6378;42.684;23.372;2024-02-26T02:37:51;58.93;;;38.90;;
12625;SDS011;6378;42.684;23.372;2024-02-26T02:40:17;60.90;;;41.67;;
12625;SDS011;6378;42.684;23.372;2024-02-26T02:42:43;51.20;;;36.37;;
12625;SDS011;6378;42.684;23.372;2024-02-26T02:45:08;57.23;;;38.27;;
12625;SDS011;6378;42.684;23.372;2024-02-26T02:47:38;56.37;;;37.50;;
12625;SDS011;6378;42.684;23.372;2024-02-26T02:50:04;51.50;;;36.00;;
12625;SDS011;6378;42.684;23.372;2024-02-26T02:52:30;55.73;;;37.10;;
12625;SDS011;6378;42.684;23.372;2024-02-26T02:54:55;51.73;;;37.70;;
12625;SDS011;6378;42.684;23.372;2024-02-26T02:57:21;55.93;;;38.80;;
12625;SDS011;6378;42.684;23.372;2024-02-26T02:59:46;62.57;;;41.83;;
12625;SDS011;6378;42.684;23.372;2024-02-26T03:02:12;59.00;;;40.33;;
12625;SDS011;6378;42.684;23.372;2024-02-26T03:04:37;61.47;;;41.63;;
12625;SDS011;6378;42.684;23.372;2024-02-26T03:07:03;60.83;;;39.67;;
12625;SDS011;6378;42.684;23.372;2024-02-26T03:09:28;57.40;;;38.70;;
12625;SDS011;6378;42.684;23.372;2024-02-26T03:11:54;58.50;;;40.40;;
12625;SDS011;6378;42.684;23.372;2024-02-26T03:14:20;56.53;;;40.97;;
12625;SDS011;6378;42.684;23.372;2024-02-26T03:16:45;60.17;;;39.80;;
12625;SDS011;6378;42.684;23.372;2024-02-26T03:19:10;57.23;;;41.03;;
12625;SDS011;6378;42.684;23.372;2024-02-26T03:21:39;60.77;;;41.37;;
12625;SDS011;6378;42.684;23.372;2024-02-26T03:24:04;58.17;;;40.73;;
12625;SDS011;6378;42.684;23.372;2024-02-26T03:26:30;58.73;;;41.27;;
12625;SDS011;6378;42.684;23.372;2024-02-26T03:28:56;58.93;;;40.53;;
12625;SDS011;6378;42.684;23.372;2024-02-26T03:31:21;56.33;;;39.13;;
12625;SDS011;6378;42.684;23.372;2024-02-26T03:33:47;60.27;;;38.90;;
12625;SDS011;6378;42.684;23.372;2024-02-26T03:36:13;61.00;;;38.73;;
12625;SDS011;6378;42.684;23.372;2024-02-26T03:38:38;55.47;;;37.63;;
12625;SDS011;6378;42.684;23.372;2024-02-26T03:41:05;58.73;;;39.23;;
12625;SDS011;6378;42.684;23.372;2024-02-26T03:43:30;62.40;;;41.57;;
12625;SDS011;6378;42.684;23.372;2024-02-26T03:45:56;60.67;;;42.03;;
12625;SDS011;6378;42.684;23.372;2024-02-26T03:48:22;64.93;;;42.67;;
12625;SDS011;6378;42.684;23.372;2024-02-26T03:50:47;61.33;;;43.33;;
12625;SDS011;6378;42.684;23.372;2024-02-26T03:53:13;62.40;;;43.20;;
12625;SDS011;6378;42.684;23.372;2024-02-26T03:55:38;63.03;;;42.27;;
12625;SDS011;6378;42.684;23.372;2024-02-26T03:58:06;64.07;;;41.63;;
12625;SDS011;6378;42.684;23.372;2024-02-26T04:00:32;64.87;;;43.93;;
12625;SDS011;6378;42.684;23.372;2024-02-26T04:02:57;67.10;;;43.90;;
12625;SDS011;6378;42.684;23.372;2024-02-26T04:05:23;61.00;;;43.17;;
12625;SDS011;6378;42.684;23.372;2024-02-26T04:07:48;62.43;;;43.93;;
12625;SDS011;6378;42.684;23.372;2024-02-26T04:10:14;67.03;;;45.17;;
12625;SDS011;6378;42.684;23.372;2024-02-26T04:12:40;61.33;;;44.60;;
12625;SDS011;6378;42.684;23.372;2024-02-26T04:15:09;73.50;;;51.57;;
12625;SDS011;6378;42.684;23.372;2024-02-26T04:17:36;96.77;;;61.90;;
12625;SDS011;6378;42.684;23.372;2024-02-26T04:20:02;85.40;;;57.63;;
12625;SDS011;6378;42.684;23.372;2024-02-26T04:22:28;103.03;;;66.50;;
12625;SDS011;6378;42.684;23.372;2024-02-26T04:24:54;105.30;;;65.60;;
12625;SDS011;6378;42.684;23.372;2024-02-26T04:27:19;78.50;;;56.23;;
12625;SDS011;6378;42.684;23.372;2024-02-26T04:29:45;84.30;;;56.80;;
12625;SDS011;6378;42.684;23.372;2024-02-26T04:32:10;87.63;;;59.97;;
12625;SDS011;6378;42.684;23.372;2024-02-26T04:34:36;67.47;;;46.30;;
12625;SDS011;6378;42.684;23.372;2024-02-26T04:37:01;78.90;;;50.90;;
12625;SDS011;6378;42.684;23.372;2024-02-26T04:39:27;66.00;;;44.50;;
12625;SDS011;6378;42.684;23.372;2024-02-26T04:41:52;64.67;;;44.47;;
12625;SDS011;6378;42.684;23.372;2024-02-26T04:44:18;60.77;;;43.40;;
12625;SDS011;6378;42.684;23.372;2024-02-26T04:46:44;56.07;;;38.83;;
12625;SDS011;6378;42.684;23.372;2024-02-26T04:49:09;55.37;;;38.20;;
12625;SDS011;6378;42.684;23.372;2024-02-26T04:51:34;61.03;;;40.97;;
12625;SDS011;6378;42.684;23.372;2024-02-26T04:54:00;59.37;;;41.03;;
12625;SDS011;6378;42.684;23.372;2024-02-26T04:56:25;57.07;;;35.93;;
12625;SDS011;6378;42.684;23.372;2024-02-26T04:58:51;59.33;;;37.13;;
12625;SDS011;6378;42.684;23.372;2024-02-26T05:01:16;55.17;;;37.50;;
12625;SDS011;6378;42.684;23.372;2024-02-26T05:03:42;53.70;;;37.87;;
12625;SDS011;6378;42.684;23.372;2024-02-26T05:06:08;60.67;;;38.10;;
12625;SDS011;6378;42.684;23.372;2024-02-26T05:08:34;54.17;;;36.40;;
12625;SDS011;6378;42.684;23.372;2024-02-26T05:11:01;51.20;;;35.43;;
12625;SDS011;6378;42.684;23.372;2024-02-26T05:13:28;53.50;;;35.83;;
12625;SDS011;6378;42.684;23.372;2024-02-26T05:15:54;51.43;;;32.63;;
12625;SDS011;6378;42.684;23.372;2024-02-26T05:18:19;52.80;;;33.93;;
12625;SDS011;6378;42.684;23.372;2024-02-26T05:20:45;50.40;;;33.50;;
12625;SDS011;6378;42.684;23.372;2024-02-26T05:23:10;48.40;;;33.50;;
12625;SDS011;6378;42.684;23.372;2024-02-26T05:25:36;49.10;;;33.10;;
12625;SDS011;6378;42.684;23.372;2024-02-26T05:28:02;58.27;;;40.10;;
12625;SDS011;6378;42.684;23.372;2024-02-26T05:30:27;70.90;;;47.10;;
12625;SDS011;6378;42.684;23.372;2024-02-26T05:32:53;64.90;;;44.93;;
12625;SDS011;6378;42.684;23.372;2024-02-26T05:35:19;48.73;;;33.73;;
12625;SDS011;6378;42.684;23.372;2024-02-26T05:37:44;45.87;;;31.43;;
12625;SDS011;6378;42.684;23.372;2024-02-26T05:40:10;48.33;;;32.87;;
12625;SDS011;6378;42.684;23.372;2024-02-26T05:42:36;50.07;;;33.23;;
12625;SDS011;6378;42.684;23.372;2024-02-26T05:45:02;48.03;;;32.10;;
12625;SDS011;6378;42.684;23.372;2024-02-26T05:47:34;48.03;;;32.03;;
12625;SDS011;6378;42.684;23.372;2024-02-26T05:50:00;49.93;;;32.40;;
12625;SDS011;6378;42.684;23.372;2024-02-26T05:52:26;49.80;;;32.97;;
12625;SDS011;6378;42.684;23.372;2024-02-26T05:54:53;61.77;;;38.80;;
12625;SDS011;6378;42.684;23.372;2024-02-26T05:57:19;48.53;;;33.80;;
12625;SDS011;6378;42.684;23.372;2024-02-26T05:59:44;51.53;;;35.67;;
12625;SDS011;6378;42.684;23.372;2024-02-26T06:02:10;50.30;;;34.93;;
12625;SDS011;6378;42.684;23.372;2024-02-26T06:04:36;50.23;;;34.90;;
12625;SDS011;6378;42.684;23.372;2024-02-26T06:07:01;55.10;;;35.50;;
12625;SDS011;6378;42.684;23.372;2024-02-26T06:09:27;55.93;;;37.70;;
12625;SDS011;6378;42.684;23.372;2024-02-26T06:11:52;118.13;;;75.73;;
12625;SDS011;6378;42.684;23.372;2024-02-26T06:14:18;52.63;;;35.73;;
12625;SDS011;6378;42.684;23.372;2024-02-26T06:16:44;50.00;;;35.67;;
12625;SDS011;6378;42.684;23.372;2024-02-26T06:19:10;47.03;;;34.67;;
12625;SDS011;6378;42.684;23.372;2024-02-26T06:21:36;48.83;;;32.87;;
12625;SDS011;6378;42.684;23.372;2024-02-26T06:24:01;49.60;;;32.93;;
12625;SDS011;6378;42.684;23.372;2024-02-26T06:26:27;46.73;;;33.57;;
12625;SDS011;6378;42.684;23.372;2024-02-26T06:28:54;47.37;;;33.63;;
12625;SDS011;6378;42.684;23.372;2024-02-26T06:31:21;53.00;;;37.27;;
12625;SDS011;6378;42.684;23.372;2024-02-26T06:33:48;58.13;;;38.23;;
12625;SDS011;6378;42.684;23.372;2024-02-26T06:36:14;57.50;;;40.27;;
12625;SDS011;6378;42.684;23.372;2024-02-26T06:38:40;55.50;;;39.00;;
12625;SDS011;6378;42.684;23.372;2024-02-26T06:41:06;60.73;;;43.67;;
12625;SDS011;6378;42.684;23.372;2024-02-26T06:43:31;59.97;;;45.27;;
12625;SDS011;6378;42.684;23.372;2024-02-26T06:45:57;77.10;;;54.33;;
12625;SDS011;6378;42.684;23.372;2024-02-26T06:48:23;74.63;;;51.83;;
12625;SDS011;6378;42.684;23.372;2024-02-26T06:50:49;81.67;;;57.20;;
12625;SDS011;6378;42.684;23.372;2024-02-26T06:53:15;96.37;;;59.00;;
12625;SDS011;6378;42.684;23.372;2024-02-26T06:55:41;77.77;;;51.63;;
12625;SDS011;6378;42.684;23.372;2024-02-26T06:58:07;73.57;;;50.33;;
12625;SDS011;6378;42.684;23.372;2024-02-26T07:00:33;72.10;;;49.37;;
12625;SDS011;6378;42.684;23.372;2024-02-26T07:02:59;76.80;;;50.33;;
12625;SDS011;6378;42.684;23.372;2024-02-26T07:05:24;71.20;;;49.13;;
12625;SDS011;6378;42.684;23.372;2024-02-26T07:07:50;68.87;;;49.13;;
12625;SDS011;6378;42.684;23.372;2024-02-26T07:10:15;73.37;;;48.83;;
12625;SDS011;6378;42.684;23.372;2024-02-26T07:12:41;83.73;;;51.83;;
12625;SDS011;6378;42.684;23.372;2024-02-26T07:15:07;85.47;;;61.33;;
12625;SDS011;6378;42.684;23.372;2024-02-26T07:17:33;136.70;;;105.73;;
12625;SDS011;6378;42.684;23.372;2024-02-26T07:20:01;197.97;;;157.83;;
12625;SDS011;6378;42.684;23.372;2024-02-26T07:22:30;202.10;;;165.03;;
12625;SDS011;6378;42.684;23.372;2024-02-26T07:24:56;227.43;;;187.97;;
12625;SDS011;6378;42.684;23.372;2024-02-26T07:27:22;237.13;;;188.97;;
12625;SDS011;6378;42.684;23.372;2024-02-26T07:29:47;252.97;;;205.20;;
12625;SDS011;6378;42.684;23.372;2024-02-26T07:32:12;178.00;;;140.67;;
12625;SDS011;6378;42.684;23.372;2024-02-26T07:34:38;131.07;;;97.10;;
12625;SDS011;6378;42.684;23.372;2024-02-26T07:37:07;89.47;;;63.27;;
12625;SDS011;6378;42.684;23.372;2024-02-26T07:39:33;89.80;;;62.20;;
12625;SDS011;6378;42.684;23.372;2024-02-26T07:41:58;87.60;;;58.17;;
12625;SDS011;6378;42.684;23.372;2024-02-26T07:44:24;82.83;;;57.07;;
12625;SDS011;6378;42.684;23.372;2024-02-26T07:46:49;76.37;;;54.10;;
12625;SDS011;6378;42.684;23.372;2024-02-26T07:49:15;70.97;;;48.23;;
12625;SDS011;6378;42.684;23.372;2024-02-26T07:51:40;68.77;;;43.83;;
12625;SDS011;6378;42.684;23.372;2024-02-26T07:54:07;80.23;;;55.13;;
12625;SDS011;6378;42.684;23.372;2024-02-26T07:56:32;64.60;;;43.77;;
12625;SDS011;6378;42.684;23.372;2024-02-26T07:58:58;62.23;;;42.90;;
12625;SDS011;6378;42.684;23.372;2024-02-26T08:01:23;74.53;;;41.17;;
12625;SDS011;6378;42.684;23.372;2024-02-26T08:03:51;61.23;;;40.73;;
12625;SDS011;6378;42.684;23.372;2024-02-26T08:06:16;60.63;;;39.83;;
12625;SDS011;6378;42.684;23.372;2024-02-26T08:08:42;74.67;;;47.47;;
12625;SDS011;6378;42.684;23.372;2024-02-26T08:11:08;73.00;;;55.67;;
12625;SDS011;6378;42.684;23.372;2024-02-26T08:13:34;85.47;;;53.00;;
12625;SDS011;6378;42.684;23.372;2024-02-26T08:16:00;55.53;;;38.27;;
12625;SDS011;6378;42.684;23.372;2024-02-26T08:18:26;52.40;;;38.33;;
12625;SDS011;6378;42.684;23.372;2024-02-26T08:20:52;59.47;;;38.28;;
12625;SDS011;6378;42.684;23.372;2024-02-26T08:23:17;53.07;;;36.07;;
12625;SDS011;6378;42.684;23.372;2024-02-26T08:25:43;58.30;;;37.57;;
12625;SDS011;6378;42.684;23.372;2024-02-26T08:28:08;55.93;;;37.40;;
12625;SDS011;6378;42.684;23.372;2024-02-26T08:30:36;48.42;;;35.42;;
12625;SDS011;6378;42.684;23.372;2024-02-26T08:33:01;47.53;;;33.33;;
12625;SDS011;6378;42.684;23.372;2024-02-26T08:35:27;49.75;;;34.42;;
12625;SDS011;6378;42.684;23.372;2024-02-26T08:37:52;35.70;;;26.02;;
12625;SDS011;6378;42.684;23.372;2024-02-26T08:40:18;41.78;;;29.25;;
12625;SDS011;6378;42.684;23.372;2024-02-26T08:42:44;40.47;;;27.98;;
12625;SDS011;6378;42.684;23.372;2024-02-26T08:45:10;39.67;;;29.25;;
12625;SDS011;6378;42.684;23.372;2024-02-26T08:47:37;39.90;;;30.63;;
12625;SDS011;6378;42.684;23.372;2024-02-26T08:50:03;39.28;;;29.30;;
12625;SDS011;6378;42.684;23.372;2024-02-26T08:52:29;45.97;;;30.23;;
12625;SDS011;6378;42.684;23.372;2024-02-26T08:54:55;42.13;;;29.38;;
12625;SDS011;6378;42.684;23.372;2024-02-26T08:57:20;41.38;;;28.02;;
12625;SDS011;6378;42.684;23.372;2024-02-26T08:59:46;43.88;;;29.25;;
12625;SDS011;6378;42.684;23.372;2024-02-26T09:02:11;40.17;;;26.30;;
12625;SDS011;6378;42.684;23.372;2024-02-26T09:04:37;27.65;;;20.70;;
12625;SDS011;6378;42.684;23.372;2024-02-26T09:07:02;24.55;;;16.73;;
12625;SDS011;6378;42.684;23.372;2024-02-26T09:09:28;13.27;;;9.88;;
12625;SDS011;6378;42.684;23.372;2024-02-26T09:11:53;26.73;;;13.63;;
12625;SDS011;6378;42.684;23.372;2024-02-26T09:14:20;19.27;;;11.70;;
12625;SDS011;6378;42.684;23.372;2024-02-26T09:16:46;16.52;;;12.25;;
12625;SDS011;6378;42.684;23.372;2024-02-26T09:19:13;18.50;;;11.65;;
12625;SDS011;6378;42.684;23.372;2024-02-26T09:21:43;20.60;;;12.27;;
12625;SDS011;6378;42.684;23.372;2024-02-26T09:24:09;13.80;;;10.05;;
12625;SDS011;6378;42.684;23.372;2024-02-26T09:26:36;16.58;;;9.68;;
12625;SDS011;6378;42.684;23.372;2024-02-26T09:29:02;11.57;;;10.38;;
12625;SDS011;6378;42.684;23.372;2024-02-26T09:31:29;11.57;;;8.35;;
12625;SDS011;6378;42.684;23.372;2024-02-26T09:33:54;11.57;;;8.98;;
12625;SDS011;6378;42.684;23.372;2024-02-26T09:36:20;14.35;;;9.45;;
12625;SDS011;6378;42.684;23.372;2024-02-26T09:38:46;11.40;;;7.45;;
12625;SDS011;6378;42.684;23.372;2024-02-26T09:41:15;15.45;;;9.52;;
12625;SDS011;6378;42.684;23.372;2024-02-26T09:43:42;14.25;;;10.60;;
12625;SDS011;6378;42.684;23.372;2024-02-26T09:46:10;17.23;;;10.95;;
12625;SDS011;6378;42.684;23.372;2024-02-26T09:48:35;17.38;;;10.18;;
12625;SDS011;6378;42.684;23.372;2024-02-26T09:51:22;12.30;;;8.43;;
12625;SDS011;6378;42.684;23.372;2024-02-26T09:53:51;10.02;;;8.30;;
12625;SDS011;6378;42.684;23.372;2024-02-26T09:56:17;10.32;;;8.45;;
12625;SDS011;6378;42.684;23.372;2024-02-26T09:58:44;8.75;;;7.43;;
12625;SDS011;6378;42.684;23.372;2024-02-26T10:01:17;11.25;;;8.68;;
12625;SDS011;6378;42.684;23.372;2024-02-26T10:03:43;10.88;;;7.55;;
12625;SDS011;6378;42.684;23.372;2024-02-26T10:06:10;13.20;;;9.75;;
12625;SDS011;6378;42.684;23.372;2024-02-26T10:08:37;12.93;;;8.88;;
12625;SDS011;6378;42.684;23.372;2024-02-26T10:11:04;12.82;;;8.23;;
12625;SDS011;6378;42.684;23.372;2024-02-26T10:13:48;11.43;;;8.38;;
12625;SDS011;6378;42.684;23.372;2024-02-26T10:16:14;12.93;;;8.35;;
12625;SDS011;6378;42.684;23.372;2024-02-26T10:18:49;10.77;;;9.00;;
12625;SDS011;6378;42.684;23.372;2024-02-26T10:21:16;10.27;;;8.20;;
12625;SDS011;6378;42.684;23.372;2024-02-26T10:23:45;8.35;;;7.45;;
12625;SDS011;6378;42.684;23.372;2024-02-26T10:26:12;8.77;;;7.88;;
12625;SDS011;6378;42.684;23.372;2024-02-26T10:28:43;21.65;;;9.50;;
12625;SDS011;6378;42.684;23.372;2024-02-26T10:31:09;11.23;;;8.27;;
12625;SDS011;6378;42.684;23.372;2024-02-26T10:33:36;11.52;;;9.13;;
12625;SDS011;6378;42.684;23.372;2024-02-26T10:36:03;12.18;;;8.63;;
12625;SDS011;6378;42.684;23.372;2024-02-26T10:38:36;9.25;;;8.02;;
12625;SDS011;6378;42.684;23.372;2024-02-26T10:41:12;12.50;;;8.73;;
12625;SDS011;6378;42.684;23.372;2024-02-26T10:43:39;12.18;;;9.00;;
12625;SDS011;6378;42.684;23.372;2024-02-26T10:46:05;13.50;;;9.30;;
12625;SDS011;6378;42.684;23.372;2024-02-26T10:48:32;11.88;;;9.57;;
12625;SDS011;6378;42.684;23.372;2024-02-26T10:50:58;11.32;;;8.07;;
12625;SDS011;6378;42.684;23.372;2024-02-26T10:53:23;14.45;;;9.45;;
12625;SDS011;6378;42.684;23.372;2024-02-26T10:56:03;11.20;;;8.25;;
12625;SDS011;6378;42.684;23.372;2024-02-26T10:58:33;10.18;;;8.27;;
12625;SDS011;6378;42.684;23.372;2024-02-26T11:00:59;12.27;;;9.23;;
12625;SDS011;6378;42.684;23.372;2024-02-26T11:03:26;10.38;;;7.78;;
12625;SDS011;6378;42.684;23.372;2024-02-26T11:05:52;13.65;;;8.38;;
12625;SDS011;6378;42.684;23.372;2024-02-26T11:08:18;14.93;;;8.80;;
12625;SDS011;6378;42.684;23.372;2024-02-26T11:10:48;8.55;;;6.32;;
12625;SDS011;6378;42.684;23.372;2024-02-26T11:13:18;7.57;;;6.43;;
12625;SDS011;6378;42.684;23.372;2024-02-26T11:15:47;12.80;;;8.77;;
12625;SDS011;6378;42.684;23.372;2024-02-26T11:18:16;11.75;;;7.57;;
12625;SDS011;6378;42.684;23.372;2024-02-26T11:20:44;8.45;;;6.65;;
12625;SDS011;6378;42.684;23.372;2024-02-26T11:23:11;10.15;;;6.88;;
12625;SDS011;6378;42.684;23.372;2024-02-26T11:25:36;24.90;;;9.18;;
12625;SDS011;6378;42.684;23.372;2024-02-26T11:28:05;9.02;;;6.78;;
12625;SDS011;6378;42.684;23.372;2024-02-26T11:30:35;8.95;;;5.97;;
12625;SDS011;6378;42.684;23.372;2024-02-26T11:33:08;10.50;;;6.45;;
12625;SDS011;6378;42.684;23.372;2024-02-26T11:35:38;8.38;;;6.88;;
12625;SDS011;6378;42.684;23.372;2024-02-26T11:38:04;11.10;;;7.40;;
12625;SDS011;6378;42.684;23.372;2024-02-26T11:40:32;7.53;;;6.63;;
12625;SDS011;6378;42.684;23.372;2024-02-26T11:43:03;13.38;;;8.55;;
12625;SDS011;6378;42.684;23.372;2024-02-26T11:48:04;12.07;;;8.90;;
12625;SDS011;6378;42.684;23.372;2024-02-26T11:50:36;8.88;;;7.13;;
12625;SDS011;6378;42.684;23.372;2024-02-26T11:53:20;10.73;;;7.57;;
12625;SDS011;6378;42.684;23.372;2024-02-26T11:58:39;10.68;;;6.85;;
12625;SDS011;6378;42.684;23.372;2024-02-26T12:01:05;11.18;;;7.50;;
12625;SDS011;6378;42.684;23.372;2024-02-26T12:03:31;11.60;;;7.45;;
12625;SDS011;6378;42.684;23.372;2024-02-26T12:05:56;9.82;;;7.30;;
12625;SDS011;6378;42.684;23.372;2024-02-26T12:08:22;11.45;;;7.38;;
12625;SDS011;6378;42.684;23.372;2024-02-26T12:10:50;8.73;;;7.20;;
12625;SDS011;6378;42.684;23.372;2024-02-26T12:13:16;12.68;;;7.93;;
12625;SDS011;6378;42.684;23.372;2024-02-26T12:15:54;12.20;;;8.25;;
12625;SDS011;6378;42.684;23.372;2024-02-26T12:18:21;11.20;;;8.10;;
12625;SDS011;6378;42.684;23.372;2024-02-26T12:21:09;9.52;;;8.00;;
12625;SDS011;6378;42.684;23.372;2024-02-26T12:23:37;24.48;;;7.80;;
12625;SDS011;6378;42.684;23.372;2024-02-26T12:26:03;9.70;;;6.72;;
12625;SDS011;6378;42.684;23.372;2024-02-26T12:28:29;9.93;;;6.72;;
12625;SDS011;6378;42.684;23.372;2024-02-26T12:30:55;9.93;;;7.45;;
12625;SDS011;6378;42.684;23.372;2024-02-26T12:33:20;15.93;;;10.02;;
12625;SDS011;6378;42.684;23.372;2024-02-26T12:35:46;8.85;;;6.20;;
12625;SDS011;6378;42.684;23.372;2024-02-26T12:38:14;7.25;;;5.65;;
12625;SDS011;6378;42.684;23.372;2024-02-26T12:40:40;10.10;;;6.05;;
12625;SDS011;6378;42.684;23.372;2024-02-26T12:43:06;6.03;;;5.43;;
12625;SDS011;6378;42.684;23.372;2024-02-26T12:45:38;9.43;;;5.93;;
12625;SDS011;6378;42.684;23.372;2024-02-26T12:48:05;6.15;;;5.53;;
12625;SDS011;6378;42.684;23.372;2024-02-26T12:50:31;11.82;;;5.53;;
12625;SDS011;6378;42.684;23.372;2024-02-26T12:52:57;6.40;;;5.25;;
12625;SDS011;6378;42.684;23.372;2024-02-26T12:55:23;13.93;;;6.60;;
12625;SDS011;6378;42.684;23.372;2024-02-26T12:57:51;11.60;;;6.63;;
12625;SDS011;6378;42.684;23.372;2024-02-26T13:00:18;6.63;;;5.80;;
12625;SDS011;6378;42.684;23.372;2024-02-26T13:02:47;8.10;;;5.97;;
12625;SDS011;6378;42.684;23.372;2024-02-26T13:05:14;6.05;;;4.65;;
12625;SDS011;6378;42.684;23.372;2024-02-26T13:07:44;9.43;;;5.40;;
12625;SDS011;6378;42.684;23.372;2024-02-26T13:10:12;6.85;;;5.40;;
12625;SDS011;6378;42.684;23.372;2024-02-26T13:12:56;8.85;;;5.88;;
12625;SDS011;6378;42.684;23.372;2024-02-26T13:15:22;10.70;;;6.78;;
12625;SDS011;6378;42.684;23.372;2024-02-26T13:17:48;9.20;;;5.80;;
12625;SDS011;6378;42.684;23.372;2024-02-26T13:20:35;8.52;;;6.13;;
12625;SDS011;6378;42.684;23.372;2024-02-26T13:23:04;9.75;;;5.95;;
12625;SDS011;6378;42.684;23.372;2024-02-26T13:25:36;7.70;;;6.05;;
12625;SDS011;6378;42.684;23.372;2024-02-26T13:28:07;13.07;;;7.78;;
12625;SDS011;6378;42.684;23.372;2024-02-26T13:30:52;10.95;;;7.93;;
12625;SDS011;6378;42.684;23.372;2024-02-26T13:33:18;15.63;;;9.00;;
12625;SDS011;6378;42.684;23.372;2024-02-26T13:35:45;11.73;;;6.60;;
12625;SDS011;6378;42.684;23.372;2024-02-26T13:38:10;6.00;;;4.80;;
12625;SDS011;6378;42.684;23.372;2024-02-26T13:40:37;12.45;;;6.15;;
12625;SDS011;6378;42.684;23.372;2024-02-26T13:43:04;7.03;;;5.10;;
12625;SDS011;6378;42.684;23.372;2024-02-26T13:45:29;13.02;;;6.70;;
12625;SDS011;6378;42.684;23.372;2024-02-26T13:47:59;9.30;;;6.00;;
12625;SDS011;6378;42.684;23.372;2024-02-26T13:50:28;9.82;;;6.13;;
12625;SDS011;6378;42.684;23.372;2024-02-26T13:52:53;9.10;;;5.72;;
12625;SDS011;6378;42.684;23.372;2024-02-26T13:55:21;7.55;;;5.90;;
12625;SDS011;6378;42.684;23.372;2024-02-26T13:57:47;7.40;;;5.20;;
12625;SDS011;6378;42.684;23.372;2024-02-26T14:00:13;11.50;;;5.70;;
12625;SDS011;6378;42.684;23.372;2024-02-26T14:02:39;9.45;;;5.57;;
12625;SDS011;6378;42.684;23.372;2024-02-26T14:05:04;8.02;;;5.90;;
12625;SDS011;6378;42.684;23.372;2024-02-26T14:07:30;12.20;;;5.70;;
12625;SDS011;6378;42.684;23.372;2024-02-26T14:09:58;8.25;;;5.15;;
12625;SDS011;6378;42.684;23.372;2024-02-26T14:12:24;7.53;;;5.95;;
12625;SDS011;6378;42.684;23.372;2024-02-26T14:14:49;7.10;;;5.13;;
12625;SDS011;6378;42.684;23.372;2024-02-26T14:17:18;5.95;;;5.18;;
12625;SDS011;6378;42.684;23.372;2024-02-26T14:19:43;8.73;;;5.60;;
12625;SDS011;6378;42.684;23.372;2024-02-26T14:22:13;11.10;;;5.75;;
12625;SDS011;6378;42.684;23.372;2024-02-26T14:24:39;8.82;;;7.22;;
12625;SDS011;6378;42.684;23.372;2024-02-26T14:27:06;11.23;;;6.20;;
12625;SDS011;6378;42.684;23.372;2024-02-26T14:29:34;8.63;;;6.28;;